نيويورك, NY

11:15 AM EDT on أمتèبر 25, 2014 (GMT -0400)
Murray Hill | Change Station
CLOSE
Current Station
Personal Weather Stations
Location: New York, NY
Elevation: 98 ft
Nearby Weather Stations

Elev 98 ft 40.75 °N, 73.98 °W | Updated 5 seconds ago

Clear
صافية
58.6 °F
Feels Like 58.6 °F
N
3.0
ريح متغير ريح from NNW
Gusts 12.0 mph

هذا اليوم
High -- | Low -- °F
--% Chance of Precip.
Yesterday
High -- | Low -- °F
Precip. -- في
7:18 AM 6:01 PM
الهلال الأول, 3% visible
الضغط 29.84 في
وضوح الرؤية 10.0 أميال
سحابات صافية
نقطة الندى 42 °F
الرطوبة 55%
Rainfall 0.00 في
عمق الثلج Not available.
الأشعة فوق البنفسجية 3 out of 12
Pollen 1.40 out of 12
الأوزون جيد
PM2.5 جيد
Flu Activity Sporadic
METAR KNYC 251451Z AUTO 29003KT 10SM CLR 14/04 A2987 RMK AO2 SLP105 T01390039 57009 $

More Conditions Fewer Conditions

الضغط 29.84 في
وضوح الرؤية 10.0 أميال
سحابات صافية
نقطة الندى 42 °F
الرطوبة 55%
Rainfall 0.00 في
عمق الثلج Not available.
الأشعة فوق البنفسجية 3 out of 12
Pollen 1.40 out of 12
الأوزون جيد
PM2.5 جيد
Flu Activity Sporadic
METAR KNYC 251451Z AUTO 29003KT 10SM CLR 14/04 A2987 RMK AO2 SLP105 T01390039 57009 $

More Conditions Fewer Conditions

10-Day Weather Forecast

Almanac

علم الفلك

Oct. 25, 2014 Rise Set
Actual Time 7:18 AM EDT 6:01 PM EDT
Civil Twilight 6:50 AM EDT 6:29 PM EDT
Nautical Twilight 6:18 AM EDT 7:01 PM EDT
Astronomical Twilight 5:46 AM EDT 7:32 PM EDT
قمر 8:54 AM EDT 7:21 PM EDT
Length Of Visible Light 11h 39m
طول الیوم
10h 42m
Tomorrow will be 2m 29s shorter.
الهلال الأول, 3% of the Moon is Illuminated
هذا اليوم
الهلال الأول
Oct 30
الربع الاول
Nov 6
بدر
Nov 14
الربع الآخر
Nov 22
New

Today's Extremes

State Highs State Lows

Community

WunderPhotos

Upload Photos

1,764,869 photos uploaded!

Nearby

جودة الهواء

  جودة الهواء AQ Index Pollutant
Yesterday جيد
OZONE
Yesterday جيد
PM2.5
حال جيد
PM2.5
حال جيد
OZONE
السبت جيد
PM2.5
الأحد جيد
PM2.5
الاثنين جيد
PM2.5

عمق الثلج

Station Depth Elevation
No new snow has been reported.

Earthquake Activity

City Distance Mag. Time & Date
No recent earthquake activity has been reported nearby.
Minimum magnitude displayed is 2.5.

Coastal Water Temperatures

مكان درجات الحرارة
Sandy Hook, NJ 57.0 °F
The Battery, NY 61.0 °F
Bergen Point West Reach, NJ 60.1 °F
Kings Point, NY 57.0 °F

Nearby Weather Stations